createdAt,value
2019-02-02T00:00:31.950Z,31.47
2019-02-02T00:03:00.387Z,30.67
2019-02-02T00:05:28.789Z,30.03
2019-02-02T00:07:57.245Z,28.73
2019-02-02T00:10:25.647Z,32.17
2019-02-02T00:12:54.109Z,29.27
2019-02-02T00:15:22.513Z,30.27
2019-02-02T00:17:50.948Z,32.00
2019-02-02T00:20:19.351Z,31.07
2019-02-02T00:22:47.799Z,35.00
2019-02-02T00:25:16.229Z,29.07
2019-02-02T00:27:44.669Z,30.07
2019-02-02T00:30:15.323Z,30.40
2019-02-02T00:32:43.845Z,31.03
2019-02-02T00:35:12.900Z,29.77
2019-02-02T00:37:41.506Z,31.57
2019-02-02T00:40:12.659Z,33.77
2019-02-02T00:42:41.157Z,29.60
2019-02-02T00:45:12.733Z,33.00
2019-02-02T00:47:41.320Z,31.50
2019-02-02T00:50:12.096Z,29.27
2019-02-02T00:52:40.528Z,31.47
2019-02-02T00:55:14.728Z,30.70
2019-02-02T00:57:52.902Z,30.40
2019-02-02T01:00:21.101Z,34.03
2019-02-02T01:02:49.812Z,31.10
2019-02-02T01:05:22.492Z,32.33
2019-02-02T01:07:51.880Z,32.67
2019-02-02T01:10:26.296Z,33.27
2019-02-02T01:12:54.852Z,33.77
2019-02-02T01:15:23.356Z,30.77
2019-02-02T01:17:52.047Z,30.23
2019-02-02T01:20:21.906Z,30.03
2019-02-02T01:22:50.393Z,32.67
2019-02-02T01:25:18.899Z,31.30
2019-02-02T01:27:47.498Z,30.83
2019-02-02T01:30:24.009Z,31.97
2019-02-02T01:32:52.923Z,32.43
2019-02-02T01:35:21.452Z,29.80
2019-02-02T01:37:50.024Z,32.07
2019-02-02T01:40:21.360Z,34.47
2019-02-02T01:42:49.805Z,33.17
2019-02-02T01:45:23.030Z,33.67
2019-02-02T01:47:51.716Z,33.40
2019-02-02T01:50:22.371Z,36.87
2019-02-02T01:52:50.970Z,34.33
2019-02-02T01:55:19.869Z,33.50
2019-02-02T01:57:51.388Z,32.23
2019-02-02T02:00:22.527Z,32.47
2019-02-02T02:02:51.020Z,31.27
2019-02-02T02:05:19.708Z,31.60
2019-02-02T02:07:48.269Z,33.33
2019-02-02T02:10:18.538Z,31.60
2019-02-02T02:12:47.354Z,30.57
2019-02-02T02:15:17.698Z,31.67
2019-02-02T02:17:50.542Z,32.77
2019-02-02T02:20:20.229Z,28.90
2019-02-02T02:22:49.832Z,32.57
2019-02-02T02:25:19.998Z,30.40
2019-02-02T02:27:48.927Z,32.33
2019-02-02T02:30:19.970Z,33.10
2019-02-02T02:32:48.609Z,31.10
2019-02-02T02:35:17.429Z,31.57
2019-02-02T02:37:46.048Z,31.67
2019-02-02T02:40:24.583Z,35.07
2019-02-02T02:42:53.501Z,36.27
2019-02-02T02:45:22.004Z,34.33
2019-02-02T02:47:50.784Z,34.67
2019-02-02T02:50:22.344Z,36.03
2019-02-02T02:52:50.762Z,35.53
2019-02-02T02:55:19.618Z,36.27
2019-02-02T02:57:48.270Z,37.07
2019-02-02T03:00:27.475Z,35.27
2019-02-02T03:02:56.323Z,37.33
2019-02-02T03:05:24.984Z,38.70
2019-02-02T03:07:55.047Z,36.80
2019-02-02T03:10:25.459Z,37.50
2019-02-02T03:12:54.806Z,39.53
2019-02-02T03:15:23.406Z,37.97
2019-02-02T03:17:52.411Z,39.57
2019-02-02T03:20:21.199Z,37.70
2019-02-02T03:22:49.636Z,38.53
2019-02-02T03:25:21.157Z,36.70
2019-02-02T03:27:49.705Z,36.37
2019-02-02T03:30:19.898Z,35.73
2019-02-02T03:32:48.421Z,35.30
2019-02-02T03:35:19.302Z,36.17
2019-02-02T03:37:47.826Z,34.73
2019-02-02T03:40:23.344Z,35.60
2019-02-02T03:42:52.355Z,34.63
2019-02-02T03:45:22.949Z,35.10
2019-02-02T03:47:52.600Z,35.77
2019-02-02T03:50:21.351Z,37.40
2019-02-02T03:52:49.928Z,34.97
2019-02-02T03:55:18.392Z,34.60
2019-02-02T03:57:46.837Z,34.13
2019-02-02T04:00:18.016Z,32.80
2019-02-02T04:02:46.506Z,33.63
2019-02-02T04:05:20.004Z,35.10
2019-02-02T04:07:48.524Z,35.23
2019-02-02T04:10:17.068Z,35.03
2019-02-02T04:12:45.496Z,33.97
2019-02-02T04:15:16.396Z,32.67
2019-02-02T04:17:44.980Z,34.53
2019-02-02T04:20:18.455Z,33.70
2019-02-02T04:22:47.049Z,36.60
2019-02-02T04:25:16.748Z,35.23
2019-02-02T04:27:45.224Z,35.77
2019-02-02T04:30:16.880Z,34.30
2019-02-02T04:32:45.368Z,31.53
2019-02-02T04:35:13.980Z,32.07
2019-02-02T04:37:42.429Z,33.83
2019-02-02T04:40:15.249Z,34.40
2019-02-02T04:42:43.683Z,33.03
2019-02-02T04:45:16.987Z,32.47
2019-02-02T04:47:45.552Z,33.37
2019-02-02T04:50:19.351Z,32.23
2019-02-02T04:52:47.935Z,32.83
2019-02-02T04:55:18.163Z,33.83
2019-02-02T04:57:46.807Z,32.83
2019-02-02T05:00:24.156Z,31.10
2019-02-02T05:02:52.752Z,34.47
2019-02-02T05:05:21.422Z,32.03
2019-02-02T05:07:49.895Z,33.47
2019-02-02T05:10:20.842Z,32.80
2019-02-02T05:12:49.322Z,32.10
2019-02-02T05:15:17.753Z,31.30
2019-02-02T05:17:46.166Z,35.47
2019-02-02T05:20:19.082Z,32.23
2019-02-02T05:22:47.755Z,33.03
2019-02-02T05:25:16.233Z,30.97
2019-02-02T05:27:46.115Z,32.97
2019-02-02T05:30:23.572Z,31.27
2019-02-02T05:32:52.054Z,33.00
2019-02-02T05:35:20.478Z,33.63
2019-02-02T05:37:48.910Z,31.07
2019-02-02T05:40:19.495Z,30.67
2019-02-02T05:42:48.030Z,30.03
2019-02-02T05:45:18.814Z,31.27
2019-02-02T05:47:47.438Z,31.13
2019-02-02T05:50:18.224Z,31.87
2019-02-02T05:52:46.702Z,31.40
2019-02-02T05:55:16.884Z,31.20
2019-02-02T05:57:45.510Z,33.07
2019-02-02T06:00:18.580Z,31.17
2019-02-02T06:02:47.038Z,31.43
2019-02-02T06:05:15.646Z,30.97
2019-02-02T06:07:44.133Z,32.00
2019-02-02T06:10:15.395Z,29.67
2019-02-02T06:12:43.795Z,31.50
2019-02-02T06:15:12.946Z,30.43
2019-02-02T06:17:41.367Z,30.50
2019-02-02T06:20:12.926Z,30.80
2019-02-02T06:22:41.333Z,29.80
2019-02-02T06:25:12.101Z,32.00
2019-02-02T06:27:40.511Z,31.70
2019-02-02T06:30:18.011Z,32.70
2019-02-02T06:32:46.553Z,31.07
2019-02-02T06:35:16.382Z,30.53
2019-02-02T06:37:44.907Z,29.60
2019-02-02T06:40:15.662Z,30.47
2019-02-02T06:42:44.317Z,31.07
2019-02-02T06:45:18.615Z,31.50
2019-02-02T06:47:47.061Z,29.63
2019-02-02T06:50:17.131Z,31.13
2019-02-02T06:52:45.546Z,31.00
2019-02-02T06:55:16.098Z,31.20
2019-02-02T06:57:44.507Z,30.20
2019-02-02T07:00:26.541Z,29.90
2019-02-02T07:02:55.019Z,30.23
2019-02-02T07:05:23.470Z,31.13
2019-02-02T07:07:52.045Z,30.17
2019-02-02T07:10:25.696Z,30.37
2019-02-02T07:12:54.286Z,30.07
2019-02-02T07:15:25.419Z,31.87
2019-02-02T07:17:53.882Z,32.07
2019-02-02T07:20:22.463Z,30.97
2019-02-02T07:22:50.919Z,32.53
2019-02-02T07:25:19.347Z,30.17
2019-02-02T07:27:47.834Z,31.60
2019-02-02T07:30:28.762Z,30.67
2019-02-02T07:32:51.816Z,31.27
2019-02-02T07:35:20.395Z,28.53
2019-02-02T07:37:48.818Z,28.50
2019-02-02T07:40:19.561Z,30.17
2019-02-02T07:42:47.995Z,29.53
2019-02-02T07:45:32.888Z,30.97
2019-02-02T07:48:01.283Z,29.63
2019-02-02T07:50:29.707Z,30.17
2019-02-02T07:52:58.132Z,30.47
2019-02-02T07:55:26.542Z,25.80
2019-02-02T07:57:54.960Z,35.70
2019-02-02T08:00:25.726Z,27.13
2019-02-02T08:02:54.270Z,27.23
2019-02-02T08:05:22.850Z,27.47
2019-02-02T08:07:51.475Z,26.83
2019-02-02T08:10:19.929Z,24.67
2019-02-02T08:12:48.549Z,25.67
2019-02-02T08:15:23.131Z,28.53
2019-02-02T08:17:51.590Z,24.70
2019-02-02T08:20:20.023Z,28.10
2019-02-02T08:22:48.455Z,24.70
2019-02-02T08:25:17.031Z,26.17
2019-02-02T08:27:45.775Z,24.37
2019-02-02T08:30:23.343Z,25.17
2019-02-02T08:32:51.728Z,25.20
2019-02-02T08:35:20.175Z,23.77
2019-02-02T08:37:48.656Z,24.83
2019-02-02T08:40:19.066Z,24.07
2019-02-02T08:42:47.562Z,24.00
2019-02-02T08:45:16.531Z,25.30
2019-02-02T08:47:44.989Z,23.13
2019-02-02T08:50:25.112Z,23.57
2019-02-02T08:52:53.520Z,20.27
2019-02-02T08:55:22.051Z,20.60
2019-02-02T08:57:50.562Z,18.63
2019-02-02T09:00:20.156Z,19.03
2019-02-02T09:02:48.645Z,20.17
2019-02-02T09:05:19.517Z,20.53
2019-02-02T09:07:48.222Z,19.47
2019-02-02T09:10:27.424Z,18.07
2019-02-02T09:12:56.614Z,18.63
2019-02-02T09:15:25.287Z,17.93
2019-02-02T09:17:53.717Z,17.40
2019-02-02T09:20:22.262Z,16.93
2019-02-02T09:23:02.152Z,17.83
2019-02-02T09:25:21.025Z,16.47
2019-02-02T09:27:49.428Z,18.50
2019-02-02T09:30:20.193Z,19.67
2019-02-02T09:32:48.607Z,18.37
2019-02-02T09:35:17.177Z,18.27
2019-02-02T09:37:45.579Z,18.60
2019-02-02T09:40:19.068Z,16.97
2019-02-02T09:42:47.647Z,19.60
2019-02-02T09:45:18.797Z,18.43
2019-02-02T09:47:47.214Z,18.43
2019-02-02T09:50:18.079Z,17.93
2019-02-02T09:52:46.503Z,17.67
2019-02-02T09:55:17.652Z,17.50
2019-02-02T09:57:46.146Z,18.77
2019-02-02T10:00:20.175Z,18.13
2019-02-02T10:02:48.555Z,17.07
2019-02-02T10:05:19.266Z,15.53
2019-02-02T10:07:48.141Z,15.93
2019-02-02T10:10:24.941Z,15.90
2019-02-02T10:12:53.420Z,15.17
2019-02-02T10:15:21.931Z,15.43
2019-02-02T10:17:50.428Z,15.60
2019-02-02T10:20:21.935Z,15.57
2019-02-02T10:22:50.355Z,15.80
2019-02-02T10:25:23.892Z,16.03
2019-02-02T10:27:52.308Z,15.07
2019-02-02T10:30:40.997Z,15.83
2019-02-02T10:33:09.943Z,15.20
2019-02-02T10:35:38.406Z,15.33
2019-02-02T10:38:07.272Z,16.07
2019-02-02T10:40:35.777Z,15.83
2019-02-02T10:43:04.706Z,16.80
2019-02-02T10:45:33.299Z,15.00
2019-02-02T10:48:01.743Z,15.73
2019-02-02T10:50:30.186Z,15.57
2019-02-02T10:52:58.602Z,15.70
2019-02-02T10:55:27.112Z,15.33
2019-02-02T10:57:55.566Z,15.47
2019-02-02T11:00:35.282Z,15.57
2019-02-02T11:03:04.163Z,12.60
2019-02-02T11:05:32.664Z,14.80
2019-02-02T11:08:01.226Z,13.30
2019-02-02T11:10:34.092Z,13.33
2019-02-02T11:13:02.676Z,11.57
2019-02-02T11:15:31.200Z,13.03
2019-02-02T11:17:59.693Z,11.97
2019-02-02T11:20:33.989Z,12.73
2019-02-02T11:23:02.833Z,11.13
2019-02-02T11:25:31.508Z,11.00
2019-02-02T11:28:00.063Z,10.13
2019-02-02T11:30:29.712Z,10.93
2019-02-02T11:32:58.183Z,10.63
2019-02-02T11:35:26.637Z,13.03
2019-02-02T11:38:14.379Z,11.80
2019-02-02T11:40:42.859Z,11.97
2019-02-02T11:43:11.339Z,11.13
2019-02-02T11:45:39.780Z,11.53
2019-02-02T11:48:08.203Z,11.93
2019-02-02T11:50:36.631Z,11.27
2019-02-02T11:53:05.388Z,13.60
2019-02-02T11:55:33.828Z,12.93
2019-02-02T11:58:02.237Z,14.00
2019-02-02T12:00:41.465Z,14.17
2019-02-02T12:03:10.143Z,14.90
2019-02-02T12:05:38.582Z,12.83
2019-02-02T12:08:06.996Z,12.70
2019-02-02T12:10:35.999Z,13.57
2019-02-02T12:13:04.647Z,13.30
2019-02-02T12:15:33.066Z,12.77
2019-02-02T12:18:01.479Z,12.67
2019-02-02T12:20:32.980Z,14.63
2019-02-02T12:23:00.125Z,14.20
2019-02-02T12:25:28.529Z,14.17
2019-02-02T12:27:56.969Z,13.30
2019-02-02T12:30:35.476Z,11.50
2019-02-02T12:33:04.581Z,11.53
2019-02-02T12:35:32.986Z,11.80
2019-02-02T12:38:01.446Z,11.43
2019-02-02T12:40:29.927Z,10.50
2019-02-02T12:42:58.582Z,11.47
2019-02-02T12:45:42.167Z,10.93
2019-02-02T12:48:10.625Z,11.37
2019-02-02T12:50:39.119Z,12.87
2019-02-02T12:53:07.562Z,12.03
2019-02-02T12:55:36.038Z,13.03
2019-02-02T12:58:06.011Z,13.17
2019-02-02T13:00:34.427Z,12.53
2019-02-02T13:03:02.886Z,11.63
2019-02-02T13:05:31.287Z,9.70
2019-02-02T13:07:59.724Z,10.30
2019-02-02T13:10:29.595Z,11.20
2019-02-02T13:12:58.107Z,10.37
2019-02-02T13:15:26.622Z,10.73
2019-02-02T13:17:55.115Z,10.97
2019-02-02T13:20:23.527Z,11.23
2019-02-02T13:22:51.969Z,9.97
2019-02-02T13:25:24.074Z,9.57
2019-02-02T13:27:54.066Z,7.50
2019-02-02T13:30:25.527Z,7.80
2019-02-02T13:32:53.981Z,8.93
2019-02-02T13:35:23.327Z,8.53
2019-02-02T13:37:51.810Z,9.40
2019-02-02T13:40:21.981Z,9.60
2019-02-02T13:42:50.491Z,11.20
2019-02-02T13:45:20.735Z,11.80
2019-02-02T13:47:49.344Z,13.57
2019-02-02T13:50:18.977Z,13.80
2019-02-02T13:52:48.893Z,14.63
2019-02-02T13:55:17.303Z,14.67
2019-02-02T13:57:45.747Z,13.70
2019-02-02T14:00:19.764Z,14.40
2019-02-02T14:02:48.320Z,15.00
2019-02-02T14:05:17.956Z,14.63
2019-02-02T14:07:46.504Z,15.23
2019-02-02T14:10:17.447Z,10.73
2019-02-02T14:12:45.899Z,10.40
2019-02-02T14:15:15.052Z,10.30
2019-02-02T14:17:43.520Z,9.97
2019-02-02T14:20:13.667Z,10.00
2019-02-02T14:22:42.260Z,9.67
2019-02-02T14:25:12.592Z,8.60
2019-02-02T14:27:41.124Z,8.57
2019-02-02T14:30:18.594Z,9.60
2019-02-02T14:32:47.043Z,9.77
2019-02-02T14:35:17.691Z,10.03
2019-02-02T14:37:46.139Z,12.17
2019-02-02T14:40:16.583Z,10.50
2019-02-02T14:42:45.054Z,10.07
2019-02-02T14:45:19.048Z,10.23
2019-02-02T14:47:47.932Z,9.87
2019-02-02T14:50:18.946Z,10.73
2019-02-02T14:52:48.340Z,10.00
2019-02-02T14:55:19.399Z,9.97
2019-02-02T14:57:47.861Z,11.23
2019-02-02T15:00:19.170Z,12.47
2019-02-02T15:02:47.894Z,13.03
2019-02-02T15:05:16.734Z,12.20
2019-02-02T15:07:45.201Z,13.13
2019-02-02T15:10:14.970Z,12.50
2019-02-02T15:12:43.422Z,13.40
2019-02-02T15:15:16.302Z,14.03
2019-02-02T15:17:44.808Z,12.57
2019-02-02T15:20:16.364Z,13.30
2019-02-02T15:22:44.804Z,13.27
2019-02-02T15:25:13.764Z,14.03
2019-02-02T15:27:42.214Z,13.63
2019-02-02T15:30:16.474Z,13.57
2019-02-02T15:32:44.948Z,14.10
2019-02-02T15:35:14.227Z,13.93
2019-02-02T15:37:42.851Z,13.73
2019-02-02T15:40:14.143Z,15.00
2019-02-02T15:42:42.627Z,13.10
2019-02-02T15:45:16.718Z,14.37
2019-02-02T15:47:45.132Z,14.17
2019-02-02T15:50:15.507Z,15.37
2019-02-02T15:52:44.080Z,14.43
2019-02-02T15:55:20.663Z,15.23
2019-02-02T15:57:49.123Z,15.50
2019-02-02T16:00:25.562Z,14.50
2019-02-02T16:02:54.040Z,16.60
2019-02-02T16:05:22.840Z,16.77
2019-02-02T16:07:51.405Z,16.43
2019-02-02T16:10:25.255Z,17.53
2019-02-02T16:12:53.751Z,16.43
2019-02-02T16:15:22.300Z,16.47
2019-02-02T16:17:50.711Z,16.03
2019-02-02T16:20:24.814Z,16.73
2019-02-02T16:22:53.219Z,16.83
2019-02-02T16:25:21.660Z,17.30
2019-02-02T16:27:50.066Z,18.20
2019-02-02T16:30:26.635Z,17.87
2019-02-02T16:32:55.134Z,17.43
2019-02-02T16:35:23.983Z,17.57
2019-02-02T16:37:52.472Z,18.70
2019-02-02T16:40:22.795Z,19.47
2019-02-02T16:42:53.467Z,20.47
2019-02-02T16:45:24.175Z,21.53
2019-02-02T16:47:52.940Z,21.47
2019-02-02T16:50:21.732Z,19.77
2019-02-02T16:52:50.126Z,18.60
2019-02-02T16:55:19.539Z,18.67
2019-02-02T16:57:48.011Z,20.27
2019-02-02T17:00:24.857Z,19.30
2019-02-02T17:02:53.403Z,20.10
2019-02-02T17:05:21.941Z,21.07
2019-02-02T17:07:50.342Z,22.10
2019-02-02T17:10:24.006Z,23.13
2019-02-02T17:12:52.440Z,21.53
2019-02-02T17:15:20.967Z,21.53
2019-02-02T17:17:49.386Z,24.63
2019-02-02T17:20:20.650Z,27.10
2019-02-02T17:22:49.059Z,24.57
2019-02-02T17:25:22.418Z,25.70
2019-02-02T17:27:50.259Z,22.67
2019-02-02T17:30:21.395Z,20.53
2019-02-02T17:32:50.645Z,20.07
2019-02-02T17:35:19.142Z,21.80
2019-02-02T17:37:47.565Z,21.00
2019-02-02T17:40:18.235Z,20.70
2019-02-02T17:42:46.647Z,19.57
2019-02-02T17:45:18.170Z,21.33
2019-02-02T17:47:46.704Z,19.67
2019-02-02T17:50:16.966Z,21.30
2019-02-02T17:52:45.386Z,21.00
2019-02-02T17:55:14.077Z,21.53
2019-02-02T17:57:42.470Z,21.50
2019-02-02T18:00:39.840Z,21.63
2019-02-02T18:03:08.247Z,22.13
2019-02-02T18:05:36.668Z,21.77
2019-02-02T18:08:05.731Z,21.80
2019-02-02T18:10:34.449Z,22.10
2019-02-02T18:13:02.874Z,21.43
2019-02-02T18:15:31.373Z,22.83
2019-02-02T18:18:02.403Z,23.80
2019-02-02T18:20:30.300Z,25.07
2019-02-02T18:22:58.719Z,24.27
2019-02-02T18:25:27.167Z,23.23
2019-02-02T18:27:55.582Z,22.17
2019-02-02T18:30:28.197Z,23.77
2019-02-02T18:32:56.859Z,23.37
2019-02-02T18:35:25.301Z,23.10
2019-02-02T18:37:53.713Z,22.83
2019-02-02T18:40:24.160Z,22.63
2019-02-02T18:42:53.424Z,21.73
2019-02-02T18:45:30.163Z,21.23
2019-02-02T18:47:58.639Z,22.97
2019-02-02T18:50:27.211Z,20.73
2019-02-02T18:52:57.386Z,22.00
2019-02-02T18:55:31.581Z,18.37
2019-02-02T18:57:59.988Z,20.37
2019-02-02T19:00:28.578Z,23.43
2019-02-02T19:02:57.052Z,22.13
2019-02-02T19:05:25.475Z,21.37
2019-02-02T19:07:53.971Z,21.37
2019-02-02T19:10:25.572Z,21.70
2019-02-02T19:12:54.064Z,21.90
2019-02-02T19:15:22.527Z,24.10
2019-02-02T19:17:50.938Z,22.90
2019-02-02T19:20:21.961Z,21.63
2019-02-02T19:22:50.417Z,20.00
2019-02-02T19:25:18.930Z,20.37
2019-02-02T19:27:47.334Z,20.90
2019-02-02T19:30:21.432Z,20.83
2019-02-02T19:32:49.832Z,21.60
2019-02-02T19:35:18.303Z,22.70
2019-02-02T19:37:46.760Z,22.40
2019-02-02T19:40:16.590Z,22.20
2019-02-02T19:42:45.032Z,21.50
2019-02-02T19:45:24.420Z,20.87
2019-02-02T19:47:52.850Z,22.13
2019-02-02T19:50:26.496Z,50.90
2019-02-02T19:52:55.018Z,23.50
2019-02-02T19:55:23.543Z,24.10
2019-02-02T19:57:52.240Z,29.63
2019-02-02T20:00:32.280Z,24.67
2019-02-02T20:03:01.363Z,26.10
2019-02-02T20:05:29.905Z,23.03
2019-02-02T20:07:58.352Z,24.30
2019-02-02T20:10:26.810Z,22.13
2019-02-02T20:12:55.314Z,23.67
2019-02-02T20:15:27.610Z,25.30
2019-02-02T20:17:56.049Z,23.77
2019-02-02T20:20:26.196Z,24.10
2019-02-02T20:22:54.902Z,24.47
2019-02-02T20:25:23.365Z,23.73
2019-02-02T20:27:51.814Z,21.97
2019-02-02T20:30:22.258Z,27.20
2019-02-02T20:32:50.699Z,23.80
2019-02-02T20:35:19.248Z,22.07
2019-02-02T20:37:47.855Z,22.13
2019-02-02T20:40:21.707Z,22.17
2019-02-02T20:42:50.216Z,20.80
2019-02-02T20:45:26.995Z,22.83
2019-02-02T20:47:55.536Z,23.37
2019-02-02T20:50:23.927Z,25.97
2019-02-02T20:52:52.410Z,26.20
2019-02-02T20:55:32.122Z,24.47
2019-02-02T20:58:00.587Z,23.90
2019-02-02T21:00:30.531Z,22.73
2019-02-02T21:02:59.000Z,23.20
2019-02-02T21:05:27.415Z,23.50
2019-02-02T21:07:55.935Z,22.67
2019-02-02T21:10:25.433Z,25.00
2019-02-02T21:12:53.880Z,22.93
2019-02-02T21:15:22.627Z,24.70
2019-02-02T21:17:51.166Z,23.10
2019-02-02T21:20:25.261Z,22.93
2019-02-02T21:22:54.020Z,22.90
2019-02-02T21:25:22.424Z,23.20
2019-02-02T21:27:50.881Z,23.73
2019-02-02T21:30:21.625Z,21.07
2019-02-02T21:32:50.102Z,20.57
2019-02-02T21:35:18.969Z,20.33
2019-02-02T21:37:47.680Z,21.10
2019-02-02T21:40:18.611Z,20.93
2019-02-02T21:42:47.119Z,19.97
2019-02-02T21:45:16.163Z,20.23
2019-02-02T21:47:44.659Z,20.37
2019-02-02T21:50:26.057Z,20.33
2019-02-02T21:52:55.041Z,18.90
2019-02-02T21:55:25.315Z,20.13
2019-02-02T21:57:53.856Z,20.70
2019-02-02T22:00:37.182Z,19.43
2019-02-02T22:03:06.747Z,19.33
2019-02-02T22:05:35.323Z,18.13
2019-02-02T22:08:04.360Z,18.23
2019-02-02T22:10:32.775Z,17.33
2019-02-02T22:13:01.223Z,17.30
2019-02-02T22:15:30.114Z,19.40
2019-02-02T22:17:58.686Z,20.00
2019-02-02T22:20:27.101Z,19.40
2019-02-02T22:22:55.611Z,18.73
2019-02-02T22:25:32.636Z,17.93
2019-02-02T22:28:02.348Z,17.60
2019-02-02T22:30:33.370Z,18.63
2019-02-02T22:33:01.825Z,16.20
2019-02-02T22:35:30.227Z,16.40
2019-02-02T22:37:59.170Z,16.20
2019-02-02T22:40:28.855Z,16.27
2019-02-02T22:42:57.291Z,13.80
2019-02-02T22:45:25.701Z,16.00
2019-02-02T22:47:54.302Z,14.53
2019-02-02T22:50:24.626Z,15.23
2019-02-02T22:52:53.512Z,15.70
2019-02-02T22:55:23.376Z,14.63
2019-02-02T22:57:52.147Z,15.17
2019-02-02T23:00:43.118Z,15.67
2019-02-02T23:03:14.631Z,15.47
2019-02-02T23:05:51.534Z,14.30
2019-02-02T23:08:41.133Z,15.03
2019-02-02T23:11:21.539Z,14.60
2019-02-02T23:14:12.794Z,14.87
2019-02-02T23:16:41.206Z,14.73
2019-02-02T23:19:09.689Z,14.77
2019-02-02T23:21:38.155Z,13.73
2019-02-02T23:24:06.648Z,13.37
2019-02-02T23:26:35.063Z,11.30
2019-02-02T23:29:03.484Z,11.53
2019-02-02T23:31:31.894Z,10.30
2019-02-02T23:34:00.325Z,11.17
2019-02-02T23:36:28.729Z,10.10
2019-02-02T23:38:57.158Z,9.33
2019-02-02T23:41:25.579Z,8.80
2019-02-02T23:43:54.482Z,9.57
2019-02-02T23:46:22.888Z,10.37
2019-02-02T23:48:51.343Z,10.17
2019-02-02T23:51:19.743Z,11.43
2019-02-02T23:53:48.191Z,10.90
2019-02-02T23:56:16.597Z,10.53
2019-02-02T23:58:45.370Z,10.47
